Time;durP1;ratioP1;P1;durP2;ratioP2;P2;SDS_P1;SDS_P2;PMS_P1;PMS_P2;Temp;Humidity;BMP_temperature;BMP_pressure;BME280_temperature;BME280_humidity;BME280_pressure;Samples;Min_cycle;Max_cycle;Signal;HPM_P1;HPM_P2
2023/12/19 00:01:02;;;;;;;55.30;40.65;;;6.30;99.90;;;;;;4944720;28;20070;-79
2023/12/19 00:03:28;;;;;;;55.22;39.55;;;6.40;99.90;;;;;;5029144;28;20109;-83
2023/12/19 00:05:54;;;;;;;52.80;40.58;;;6.30;99.90;;;;;;5029877;28;20050;-83
2023/12/19 00:08:19;;;;;;;57.47;41.17;;;6.30;99.90;;;;;;5027670;28;20043;-85
2023/12/19 00:10:45;;;;;;;47.85;40.88;;;6.30;99.90;;;;;;4959784;28;20089;-81
2023/12/19 00:13:11;;;;;;;63.05;42.83;;;6.30;99.90;;;;;;4968261;28;20050;-81
2023/12/19 00:15:37;;;;;;;47.35;39.58;;;6.30;99.90;;;;;;4951887;28;20047;-82
2023/12/19 00:18:03;;;;;;;37.78;33.95;;;6.40;99.90;;;;;;4946770;28;20563;-79
2023/12/19 00:20:29;;;;;;;42.38;34.35;;;6.40;99.90;;;;;;5029223;28;20053;-79
2023/12/19 00:22:55;;;;;;;39.22;35.42;;;6.30;99.90;;;;;;5028916;28;20039;-81
2023/12/19 00:25:23;;;;;;;42.22;37.78;;;6.30;99.90;;;;;;4960985;28;20115;-80
2023/12/19 00:27:49;;;;;;;35.00;31.52;;;6.30;99.90;;;;;;4962099;28;20085;-77
2023/12/19 00:30:15;;;;;;;41.15;36.88;;;6.30;99.90;;;;;;4962937;28;20051;-79
2023/12/19 00:32:41;;;;;;;37.88;33.17;;;6.30;99.90;;;;;;4963667;28;20047;-79
2023/12/19 00:35:07;;;;;;;41.75;32.40;;;6.30;99.90;;;;;;4961645;28;20107;-80
2023/12/19 00:37:32;;;;;;;40.15;35.65;;;6.30;99.90;;;;;;4959655;28;20043;-79
2023/12/19 00:39:58;;;;;;;36.55;32.72;;;6.30;99.90;;;;;;4961946;28;20483;-80
2023/12/19 00:42:24;;;;;;;40.47;36.13;;;6.30;99.90;;;;;;4960870;28;20444;-82
2023/12/19 00:44:50;;;;;;;44.28;38.28;;;6.30;99.90;;;;;;4961986;28;20040;-79
2023/12/19 00:47:15;;;;;;;43.80;34.58;;;6.30;99.90;;;;;;4944728;28;20040;-81
2023/12/19 00:49:42;;;;;;;42.15;36.22;;;6.40;99.90;;;;;;4961599;28;20054;-79
2023/12/19 00:52:08;;;;;;;40.13;35.05;;;6.40;99.90;;;;;;4946168;28;20133;-79
2023/12/19 00:54:34;;;;;;;37.55;33.53;;;6.30;99.90;;;;;;4967581;28;20481;-84
2023/12/19 00:56:59;;;;;;;41.72;37.33;;;6.30;99.90;;;;;;4961971;28;20051;-82
2023/12/19 00:59:25;;;;;;;40.00;35.88;;;6.30;99.90;;;;;;5027805;28;20093;-78
2023/12/19 01:01:51;;;;;;;39.58;35.30;;;6.40;99.90;;;;;;4962155;28;20043;-81
2023/12/19 01:04:17;;;;;;;41.17;35.80;;;6.30;99.90;;;;;;4960803;28;20058;-79
2023/12/19 01:06:43;;;;;;;35.53;31.67;;;6.30;99.90;;;;;;5028125;28;20055;-86
2023/12/19 01:09:09;;;;;;;37.30;33.38;;;6.30;99.90;;;;;;4960882;28;20039;-80
2023/12/19 01:11:36;;;;;;;39.58;33.90;;;6.30;99.90;;;;;;4944358;28;20123;-83
2023/12/19 01:14:01;;;;;;;38.85;30.52;;;6.30;99.90;;;;;;4965783;28;20127;-80
2023/12/19 01:16:28;;;;;;;34.70;30.92;;;6.40;99.90;;;;;;4944363;28;20082;-81
2023/12/19 01:18:55;;;;;;;35.25;30.00;;;6.30;99.90;;;;;;4962189;28;20162;-80
2023/12/19 01:21:20;;;;;;;33.95;30.30;;;6.30;99.90;;;;;;4960408;28;20044;-80
2023/12/19 01:23:46;;;;;;;33.80;30.13;;;6.30;99.90;;;;;;4945198;28;20051;-80
2023/12/19 01:26:12;;;;;;;41.00;33.90;;;6.30;99.90;;;;;;4961653;28;20060;-81
2023/12/19 01:28:42;;;;;;;33.72;30.25;;;6.30;99.90;;;;;;5027672;28;20051;-80
2023/12/19 01:31:07;;;;;;;33.17;29.67;;;6.30;99.90;;;;;;4961271;28;20046;-81
2023/12/19 01:33:33;;;;;;;31.38;27.98;;;6.30;99.90;;;;;;4960088;28;20051;-77
2023/12/19 01:35:59;;;;;;;37.53;33.83;;;6.30;99.90;;;;;;4961609;28;20073;-81
2023/12/19 01:38:25;;;;;;;36.53;30.65;;;6.30;99.90;;;;;;4943622;28;20572;-80
2023/12/19 01:40:52;;;;;;;30.38;27.50;;;6.30;99.90;;;;;;4946175;28;20482;-82
2023/12/19 01:43:19;;;;;;;31.67;28.48;;;6.30;99.90;;;;;;4945773;28;20043;-82
2023/12/19 01:45:45;;;;;;;32.08;28.88;;;6.20;99.90;;;;;;4961191;28;20522;-80
2023/12/19 01:48:15;;;;;;;30.38;27.17;;;6.20;99.90;;;;;;4945750;28;20085;-83
2023/12/19 01:50:41;;;;;;;30.33;27.63;;;6.20;99.90;;;;;;4944861;28;20051;-81
2023/12/19 01:53:09;;;;;;;30.48;27.45;;;6.20;99.90;;;;;;4962007;28;20031;-79
2023/12/19 01:55:36;;;;;;;31.38;28.40;;;6.20;99.90;;;;;;4960167;28;20054;-80
2023/12/19 01:58:03;;;;;;;31.95;28.88;;;6.20;99.90;;;;;;4962210;29;20049;-83
2023/12/19 02:00:29;;;;;;;34.67;31.60;;;6.20;99.90;;;;;;4960583;28;20039;-79
2023/12/19 02:02:55;;;;;;;33.08;30.25;;;6.20;99.90;;;;;;4959688;28;20107;-77
2023/12/19 02:05:21;;;;;;;36.10;32.45;;;6.30;99.90;;;;;;4945356;28;20083;-78
2023/12/19 02:07:48;;;;;;;31.00;28.58;;;6.30;99.90;;;;;;4943238;28;20039;-83
2023/12/19 02:10:15;;;;;;;34.53;31.33;;;6.20;99.90;;;;;;4961290;28;20494;-78
2023/12/19 02:12:41;;;;;;;34.63;31.55;;;6.20;99.90;;;;;;4959921;28;20044;-78
2023/12/19 02:15:08;;;;;;;35.17;32.13;;;6.20;99.90;;;;;;4960609;28;20121;-81
2023/12/19 02:17:34;;;;;;;34.20;31.52;;;6.20;99.90;;;;;;4920987;28;20074;-79
2023/12/19 02:20:00;;;;;;;36.17;33.17;;;6.20;99.90;;;;;;4959760;28;20059;-81
2023/12/19 02:22:27;;;;;;;38.03;34.83;;;6.20;99.90;;;;;;4929632;28;20047;-77
2023/12/19 02:24:52;;;;;;;35.20;32.30;;;6.20;99.90;;;;;;4959131;28;20065;-78
2023/12/19 02:27:19;;;;;;;35.97;33.33;;;6.30;99.90;;;;;;4945329;28;20054;-77
2023/12/19 02:29:45;;;;;;;36.08;33.08;;;6.30;99.90;;;;;;4927533;28;20035;-81
2023/12/19 02:32:11;;;;;;;35.22;32.20;;;6.20;99.90;;;;;;4941400;28;20082;-79
2023/12/19 02:34:36;;;;;;;32.70;29.85;;;6.20;99.90;;;;;;4944269;28;20046;-85
2023/12/19 02:37:02;;;;;;;36.42;33.17;;;6.30;99.90;;;;;;4944081;28;20081;-81
2023/12/19 02:39:28;;;;;;;33.78;30.48;;;6.30;99.90;;;;;;4960002;28;20059;-78
2023/12/19 02:41:53;;;;;;;39.28;36.17;;;6.20;99.90;;;;;;4959151;28;20137;-79
2023/12/19 02:44:19;;;;;;;36.55;33.53;;;6.20;99.90;;;;;;4960578;28;20059;-79
2023/12/19 02:46:45;;;;;;;37.08;33.90;;;6.20;99.90;;;;;;4959004;28;20161;-85
2023/12/19 02:49:11;;;;;;;34.83;31.73;;;6.20;99.90;;;;;;4944758;28;20059;-79
2023/12/19 02:51:36;;;;;;;36.20;33.28;;;6.30;99.90;;;;;;4946732;28;20043;-80
2023/12/19 02:54:02;;;;;;;36.65;33.47;;;6.30;99.90;;;;;;4963389;28;20043;-81
2023/12/19 02:56:32;;;;;;;36.70;33.50;;;6.20;99.90;;;;;;4960519;28;20066;-79
2023/12/19 02:58:57;;;;;;;35.30;32.75;;;6.30;99.90;;;;;;5023900;28;20060;-81
2023/12/19 03:01:23;;;;;;;35.63;32.53;;;6.30;99.90;;;;;;5027541;28;20055;-81
2023/12/19 03:03:49;;;;;;;35.50;32.60;;;6.20;99.90;;;;;;5026083;28;20039;-82
2023/12/19 03:06:14;;;;;;;36.38;33.67;;;6.20;99.90;;;;;;4925488;28;20098;-80
2023/12/19 03:08:47;;;;;;;32.78;30.27;;;6.20;99.90;;;;;;4933648;28;20435;-76
2023/12/19 03:11:13;;;;;;;39.05;36.25;;;6.30;99.90;;;;;;4958281;28;20043;-88
2023/12/19 03:13:39;;;;;;;39.75;36.80;;;6.30;99.90;;;;;;4960357;28;20399;-83
2023/12/19 03:16:05;;;;;;;38.17;35.33;;;6.30;99.90;;;;;;5025764;28;20035;-83
2023/12/19 03:18:31;;;;;;;32.42;30.23;;;6.30;99.90;;;;;;4961398;28;20069;-86
2023/12/19 03:20:57;;;;;;;37.97;34.85;;;6.30;99.90;;;;;;4958613;28;20523;-78
2023/12/19 03:23:23;;;;;;;36.38;33.78;;;6.30;99.90;;;;;;4960270;28;20047;-86
2023/12/19 03:25:49;;;;;;;34.20;31.85;;;6.30;99.90;;;;;;4943514;28;20043;-86
2023/12/19 03:28:15;;;;;;;37.28;34.35;;;6.30;99.90;;;;;;4959404;28;20051;-81
2023/12/19 03:30:41;;;;;;;38.13;35.60;;;6.30;99.90;;;;;;4968608;28;20087;-78
2023/12/19 03:33:06;;;;;;;40.35;37.75;;;6.30;99.90;;;;;;4958824;28;20085;-86
2023/12/19 03:35:32;;;;;;;39.30;36.58;;;6.30;99.90;;;;;;5026634;28;20062;-86
2023/12/19 03:37:58;;;;;;;32.60;30.58;;;6.30;99.90;;;;;;4926426;28;20031;-79
2023/12/19 03:40:24;;;;;;;33.85;31.75;;;6.30;99.90;;;;;;4958962;28;20112;-84
2023/12/19 03:42:50;;;;;;;39.75;37.25;;;6.30;99.90;;;;;;4958342;28;20058;-81
2023/12/19 03:45:16;;;;;;;43.45;40.75;;;6.30;99.90;;;;;;5026452;28;20483;-78
2023/12/19 03:47:41;;;;;;;43.65;40.88;;;6.30;99.90;;;;;;4959471;28;20043;-85
2023/12/19 03:50:08;;;;;;;38.22;35.78;;;6.30;99.90;;;;;;5026081;28;20520;-78
2023/12/19 03:52:34;;;;;;;39.28;36.97;;;6.30;99.90;;;;;;4959728;28;20044;-82
2023/12/19 03:55:00;;;;;;;39.80;37.40;;;6.30;99.90;;;;;;4964066;28;20050;-85
2023/12/19 03:57:29;;;;;;;39.38;37.08;;;6.30;99.90;;;;;;4927695;28;20070;-82
2023/12/19 04:02:22;;;;;;;43.75;41.05;;;6.30;99.90;;;;;;4960295;28;20144;-82
2023/12/19 04:04:48;;;;;;;41.92;39.22;;;6.40;99.90;;;;;;4944684;28;20063;-80
2023/12/19 04:07:14;;;;;;;42.35;39.75;;;6.40;99.90;;;;;;4944162;28;20517;-78
2023/12/19 04:09:40;;;;;;;43.45;40.80;;;6.30;99.90;;;;;;4960046;28;20050;-79
2023/12/19 04:12:06;;;;;;;43.97;41.13;;;6.30;99.90;;;;;;4959543;28;20052;-81
2023/12/19 04:14:32;;;;;;;42.53;40.10;;;6.40;99.90;;;;;;4953846;28;20047;-82
2023/12/19 04:16:59;;;;;;;42.47;39.67;;;6.40;99.90;;;;;;4959305;28;20479;-83
2023/12/19 04:19:25;;;;;;;45.65;42.75;;;6.40;99.90;;;;;;4944444;28;20134;-81
2023/12/19 04:21:50;;;;;;;47.33;44.47;;;6.40;99.90;;;;;;4960559;28;20047;-79
2023/12/19 04:24:17;;;;;;;44.88;42.10;;;6.40;99.90;;;;;;4962450;28;20039;-84
2023/12/19 04:26:43;;;;;;;41.50;38.63;;;6.40;99.90;;;;;;4948012;28;20043;-80
2023/12/19 04:29:09;;;;;;;47.65;44.50;;;6.40;99.90;;;;;;4961766;28;20101;-82
2023/12/19 04:31:35;;;;;;;41.55;38.85;;;6.40;99.90;;;;;;4957256;28;20037;-81
2023/12/19 04:34:04;;;;;;;35.63;33.38;;;6.40;99.90;;;;;;4945645;28;20047;-80
2023/12/19 04:36:31;;;;;;;43.13;40.40;;;6.40;99.90;;;;;;4969644;28;20534;-80
2023/12/19 04:38:57;;;;;;;33.67;31.48;;;6.40;99.90;;;;;;4961806;28;20042;-82
2023/12/19 04:41:22;;;;;;;34.53;32.35;;;6.40;99.90;;;;;;4963096;28;20169;-80
2023/12/19 04:43:48;;;;;;;37.22;34.88;;;6.50;99.90;;;;;;4963812;28;20096;-81
2023/12/19 04:46:14;;;;;;;34.40;32.10;;;6.40;99.90;;;;;;4930868;28;20027;-81
2023/12/19 04:48:43;;;;;;;36.03;33.83;;;6.40;99.90;;;;;;4963254;28;20043;-82
2023/12/19 04:51:19;;;;;;;35.35;33.45;;;6.40;99.90;;;;;;4994149;28;20393;-80
2023/12/19 04:53:46;;;;;;;34.53;32.53;;;6.50;99.90;;;;;;4980302;28;20112;-76
2023/12/19 04:56:11;;;;;;;35.45;33.35;;;6.40;99.90;;;;;;4962785;28;20043;-80
2023/12/19 04:58:41;;;;;;;36.80;34.50;;;6.40;99.90;;;;;;4963362;28;20066;-79
2023/12/19 05:01:07;;;;;;;35.72;33.70;;;6.50;99.90;;;;;;4962396;28;20055;-81
2023/12/19 05:03:33;;;;;;;36.05;33.95;;;6.40;99.90;;;;;;4946181;28;20051;-78
2023/12/19 05:06:00;;;;;;;33.22;31.27;;;6.40;99.90;;;;;;4963691;28;20051;-77
2023/12/19 05:08:25;;;;;;;36.22;34.20;;;6.40;99.90;;;;;;4962115;28;20047;-79
2023/12/19 05:10:51;;;;;;;36.97;34.92;;;6.40;99.90;;;;;;4963038;28;20633;-75
2023/12/19 05:13:17;;;;;;;32.28;30.35;;;6.50;99.90;;;;;;4947109;28;20054;-78
2023/12/19 05:15:42;;;;;;;35.50;33.08;;;6.50;99.90;;;;;;4946792;28;20059;-77
2023/12/19 05:18:08;;;;;;;32.65;30.70;;;6.50;99.90;;;;;;4946197;28;20501;-76
2023/12/19 05:20:34;;;;;;;32.30;30.23;;;6.50;99.90;;;;;;4930942;28;20051;-79
2023/12/19 05:23:03;;;;;;;30.25;28.45;;;6.50;99.90;;;;;;4931109;28;20036;-77
2023/12/19 05:25:28;;;;;;;30.05;28.17;;;6.50;99.90;;;;;;4961694;28;20043;-77
2023/12/19 05:27:54;;;;;;;33.28;31.23;;;6.50;99.90;;;;;;4962863;28;20067;-78
2023/12/19 05:30:20;;;;;;;35.10;33.25;;;6.50;99.90;;;;;;4947811;28;20057;-78
2023/12/19 05:32:45;;;;;;;31.25;29.50;;;6.50;99.90;;;;;;5029856;28;20039;-76
2023/12/19 05:35:11;;;;;;;30.05;28.10;;;6.50;99.90;;;;;;4946261;28;20043;-79
2023/12/19 05:37:37;;;;;;;25.17;23.63;;;6.60;99.90;;;;;;4961116;28;20047;-79
2023/12/19 05:40:03;;;;;;;29.25;27.45;;;6.60;99.90;;;;;;4962256;28;20035;-77
2023/12/19 05:42:29;;;;;;;33.25;31.45;;;6.60;99.90;;;;;;4962464;28;20077;-79
2023/12/19 05:44:55;;;;;;;31.70;29.90;;;6.60;99.90;;;;;;4963666;28;20074;-81
2023/12/19 05:47:20;;;;;;;31.02;29.20;;;6.60;99.90;;;;;;4945930;28;20035;-76
2023/12/19 05:49:46;;;;;;;29.23;27.42;;;6.60;99.90;;;;;;4963703;28;20047;-77
2023/12/19 05:52:12;;;;;;;28.50;26.80;;;6.60;99.90;;;;;;4962308;28;21260;-77
2023/12/19 05:54:37;;;;;;;32.78;30.85;;;6.60;99.90;;;;;;4948548;28;20047;-81
2023/12/19 05:57:03;;;;;;;32.60;30.70;;;6.60;99.90;;;;;;4962192;28;20057;-83
2023/12/19 05:59:29;;;;;;;31.77;29.85;;;6.60;99.90;;;;;;4961174;28;20040;-77
2023/12/19 06:01:54;;;;;;;31.73;29.60;;;6.60;99.90;;;;;;4930366;28;20059;-79
2023/12/19 06:04:20;;;;;;;33.53;31.60;;;6.60;99.90;;;;;;4961179;28;20055;-80
2023/12/19 06:06:46;;;;;;;32.35;30.63;;;6.60;99.90;;;;;;5029606;28;20039;-78
2023/12/19 06:09:11;;;;;;;31.83;29.92;;;6.60;99.90;;;;;;4929840;28;20050;-78
2023/12/19 06:11:37;;;;;;;33.47;31.67;;;6.60;99.90;;;;;;4961156;28;20055;-80
2023/12/19 06:14:05;;;;;;;31.92;30.27;;;6.60;99.90;;;;;;4948861;28;20047;-81
2023/12/19 06:16:31;;;;;;;32.97;31.23;;;6.60;99.90;;;;;;4960921;28;20568;-78
2023/12/19 06:18:57;;;;;;;30.33;28.90;;;6.60;99.90;;;;;;4961953;28;20049;-82
2023/12/19 06:21:23;;;;;;;30.58;28.88;;;6.60;99.90;;;;;;4961713;28;20090;-83
2023/12/19 06:23:49;;;;;;;32.13;30.50;;;6.60;99.90;;;;;;4961617;28;20042;-81
2023/12/19 06:26:15;;;;;;;30.88;29.27;;;6.60;99.90;;;;;;4945437;28;20151;-83
2023/12/19 06:28:41;;;;;;;31.20;29.50;;;6.60;99.90;;;;;;4962441;28;20047;-80
2023/12/19 06:31:07;;;;;;;30.58;28.85;;;6.60;99.90;;;;;;4996152;28;20100;-82
2023/12/19 06:33:32;;;;;;;30.60;29.00;;;6.60;99.90;;;;;;5001056;28;20045;-76
2023/12/19 06:35:58;;;;;;;30.25;28.70;;;6.60;99.90;;;;;;4946571;28;20122;-80
2023/12/19 06:38:24;;;;;;;30.80;28.98;;;6.60;99.90;;;;;;4970909;28;20132;-83
2023/12/19 06:40:50;;;;;;;29.80;28.30;;;6.60;99.90;;;;;;4962784;28;20102;-80
2023/12/19 06:43:17;;;;;;;28.20;26.80;;;6.60;99.90;;;;;;4961812;28;20043;-82
2023/12/19 06:45:42;;;;;;;26.80;25.38;;;6.60;99.90;;;;;;4961118;28;20067;-78
2023/12/19 06:48:08;;;;;;;27.83;26.33;;;6.60;99.90;;;;;;4961653;28;20110;-77
2023/12/19 06:50:34;;;;;;;28.08;26.60;;;6.60;99.90;;;;;;4944566;28;20073;-79
2023/12/19 06:53:00;;;;;;;28.38;26.88;;;6.60;99.90;;;;;;4961806;28;20490;-78
2023/12/19 06:55:27;;;;;;;28.25;26.65;;;6.60;99.90;;;;;;4932464;28;20059;-77
2023/12/19 06:57:53;;;;;;;28.50;27.00;;;6.60;99.90;;;;;;4961553;28;20093;-77
2023/12/19 07:00:18;;;;;;;27.85;26.42;;;6.60;99.90;;;;;;4944593;28;20059;-76
2023/12/19 07:02:44;;;;;;;29.98;28.38;;;6.60;99.90;;;;;;4945738;28;20059;-80
2023/12/19 07:05:10;;;;;;;27.95;26.40;;;6.60;99.90;;;;;;4961279;28;20098;-80
2023/12/19 07:07:36;;;;;;;27.52;26.00;;;6.50;99.90;;;;;;4960478;28;20086;-76
2023/12/19 07:10:03;;;;;;;28.63;26.95;;;6.60;99.90;;;;;;4944999;28;20051;-77
2023/12/19 07:12:29;;;;;;;29.67;28.13;;;6.60;99.90;;;;;;4944224;28;20051;-78
2023/12/19 07:14:55;;;;;;;31.67;30.13;;;6.60;99.90;;;;;;4929600;28;20031;-79
2023/12/19 07:17:22;;;;;;;27.98;26.38;;;6.60;99.90;;;;;;4960655;28;20051;-79
2023/12/19 07:19:48;;;;;;;33.05;31.27;;;6.60;99.90;;;;;;4961086;28;20074;-79
2023/12/19 07:22:13;;;;;;;34.30;32.50;;;6.60;99.90;;;;;;4961421;28;20051;-77
2023/12/19 07:24:39;;;;;;;33.30;31.60;;;6.70;99.90;;;;;;4944485;28;20053;-80
2023/12/19 07:27:06;;;;;;;35.95;33.88;;;6.60;99.90;;;;;;4961174;28;20043;-79
2023/12/19 07:29:31;;;;;;;34.65;33.03;;;6.60;99.90;;;;;;4943743;28;20043;-81
2023/12/19 07:31:58;;;;;;;32.67;31.08;;;6.60;99.90;;;;;;4960884;28;20503;-79
2023/12/19 07:34:24;;;;;;;33.47;31.67;;;6.60;99.90;;;;;;4960564;28;20051;-78
2023/12/19 07:36:51;;;;;;;32.67;31.17;;;6.70;99.90;;;;;;4979040;28;20054;-77
2023/12/19 07:39:16;;;;;;;32.20;30.40;;;6.70;99.90;;;;;;4944430;28;20062;-78
2023/12/19 07:41:42;;;;;;;32.65;30.95;;;6.70;99.90;;;;;;4960449;28;20074;-78
2023/12/19 07:44:13;;;;;;;31.80;30.23;;;6.70;99.90;;;;;;4944511;28;20470;-80
2023/12/19 07:46:42;;;;;;;31.10;29.30;;;6.70;99.90;;;;;;4961772;28;20051;-80
2023/12/19 07:49:11;;;;;;;30.00;28.52;;;6.70;99.90;;;;;;4993548;28;20039;-79
2023/12/19 07:51:37;;;;;;;30.77;29.27;;;6.80;99.90;;;;;;4960318;28;20096;-79
2023/12/19 07:54:03;;;;;;;31.20;29.48;;;6.80;99.90;;;;;;4964019;28;20067;-82
2023/12/19 07:56:29;;;;;;;33.38;31.48;;;6.70;99.90;;;;;;4955974;28;20043;-83
2023/12/19 07:58:54;;;;;;;32.28;30.50;;;6.70;99.90;;;;;;4962626;28;20078;-81
2023/12/19 08:01:20;;;;;;;35.13;33.35;;;6.80;99.90;;;;;;4932088;28;20059;-79
2023/12/19 08:03:46;;;;;;;32.92;31.38;;;6.80;99.90;;;;;;4963481;29;20079;-79
2023/12/19 08:06:13;;;;;;;32.80;30.95;;;6.80;99.90;;;;;;4963883;28;20043;-77
2023/12/19 08:08:39;;;;;;;33.70;32.20;;;6.80;99.90;;;;;;4941184;28;20032;-79
2023/12/19 08:11:05;;;;;;;35.15;33.35;;;6.80;99.90;;;;;;4962478;28;20039;-79
2023/12/19 08:13:31;;;;;;;33.60;31.98;;;6.90;99.90;;;;;;4967683;28;20079;-79
2023/12/19 08:15:57;;;;;;;33.20;31.67;;;6.90;99.90;;;;;;4961048;28;20051;-80
2023/12/19 08:18:23;;;;;;;33.97;32.33;;;6.90;99.90;;;;;;4974901;28;20058;-79
2023/12/19 08:20:48;;;;;;;32.50;31.10;;;6.90;99.90;;;;;;4961342;28;20495;-78
2023/12/19 08:23:14;;;;;;;34.15;32.47;;;6.80;99.90;;;;;;4961835;28;20089;-78
2023/12/19 08:25:41;;;;;;;35.35;33.85;;;6.90;99.90;;;;;;4961234;28;20039;-79
2023/12/19 08:28:11;;;;;;;34.05;32.55;;;6.90;99.90;;;;;;4954202;28;20054;-77
2023/12/19 08:30:38;;;;;;;31.67;30.25;;;6.90;99.90;;;;;;4982362;28;20058;-76
2023/12/19 08:33:05;;;;;;;32.83;31.23;;;6.90;99.90;;;;;;4945432;28;20085;-75
2023/12/19 08:35:31;;;;;;;31.73;30.23;;;6.90;99.90;;;;;;4960404;28;20067;-76
2023/12/19 08:37:56;;;;;;;32.47;30.98;;;6.90;99.90;;;;;;4961094;28;20047;-78
2023/12/19 08:40:22;;;;;;;29.67;28.27;;;7.00;99.90;;;;;;4962514;28;20360;-79
2023/12/19 08:42:53;;;;;;;31.33;29.92;;;7.00;99.90;;;;;;4974879;28;20067;-78
2023/12/19 08:45:22;;;;;;;29.10;27.65;;;7.00;99.90;;;;;;4961852;28;20055;-78
2023/12/19 08:47:49;;;;;;;29.05;27.67;;;7.00;99.90;;;;;;4965455;28;20062;-80
2023/12/19 08:50:15;;;;;;;30.33;28.83;;;7.00;99.90;;;;;;4959129;28;20057;-76
2023/12/19 08:52:42;;;;;;;31.92;30.33;;;7.00;99.90;;;;;;4991889;28;20047;-76
2023/12/19 08:55:11;;;;;;;31.25;29.75;;;7.10;99.90;;;;;;4962483;28;20054;-79
2023/12/19 08:57:42;;;;;;;33.92;32.35;;;7.00;99.90;;;;;;4969537;28;20069;-78
2023/12/19 09:00:13;;;;;;;32.88;31.17;;;7.10;99.90;;;;;;4960022;28;20051;-76
2023/12/19 09:02:42;;;;;;;32.65;31.05;;;7.10;99.90;;;;;;4950947;28;20051;-78
2023/12/19 09:05:13;;;;;;;34.30;32.78;;;7.10;99.90;;;;;;4953135;28;20043;-76
2023/12/19 09:07:40;;;;;;;35.78;34.17;;;7.20;99.90;;;;;;5019652;28;20048;-77
2023/12/19 09:10:06;;;;;;;36.30;34.40;;;7.20;99.90;;;;;;5043713;28;20105;-74
2023/12/19 09:12:33;;;;;;;36.38;34.78;;;7.20;99.90;;;;;;4962511;28;20051;-75
2023/12/19 09:14:59;;;;;;;38.42;36.72;;;7.20;99.90;;;;;;4981828;28;20055;-74
2023/12/19 09:17:25;;;;;;;37.85;36.15;;;7.10;99.90;;;;;;4981774;28;20053;-73
2023/12/19 09:19:50;;;;;;;38.38;36.58;;;7.20;99.90;;;;;;4981782;28;20066;-74
2023/12/19 09:22:16;;;;;;;37.83;36.13;;;7.20;99.90;;;;;;4968075;28;20073;-75
2023/12/19 09:24:42;;;;;;;37.67;36.00;;;7.20;99.90;;;;;;4961735;29;20058;-75
2023/12/19 09:27:08;;;;;;;37.83;36.13;;;7.30;99.90;;;;;;4962777;29;20047;-76
2023/12/19 09:29:33;;;;;;;38.55;36.85;;;7.30;99.90;;;;;;4961507;28;20062;-75
2023/12/19 09:32:01;;;;;;;39.80;38.17;;;7.30;99.90;;;;;;5033638;28;20047;-75
2023/12/19 09:34:27;;;;;;;42.75;40.75;;;7.30;99.90;;;;;;5059676;28;20064;-75
2023/12/19 09:36:53;;;;;;;40.80;38.88;;;7.30;99.90;;;;;;4981292;28;20054;-75
2023/12/19 09:39:19;;;;;;;40.50;38.63;;;7.40;99.90;;;;;;4981342;28;20104;-75
2023/12/19 09:41:47;;;;;;;41.92;40.13;;;7.40;99.90;;;;;;4964080;28;20046;-76
2023/12/19 09:44:13;;;;;;;43.95;42.00;;;7.40;99.90;;;;;;5047837;28;20050;-76
2023/12/19 09:46:41;;;;;;;41.53;39.70;;;7.40;99.90;;;;;;4981145;28;20058;-75
2023/12/19 09:49:10;;;;;;;43.05;40.95;;;7.40;99.90;;;;;;4947016;28;20047;-75
2023/12/19 09:51:42;;;;;;;42.90;40.97;;;7.40;99.90;;;;;;4949665;28;20044;-75
2023/12/19 09:54:08;;;;;;;43.17;41.25;;;7.40;99.90;;;;;;4951433;28;20120;-76
2023/12/19 09:56:35;;;;;;;43.05;41.05;;;7.40;99.90;;;;;;4981891;28;20046;-75
2023/12/19 09:59:03;;;;;;;45.35;43.35;;;7.50;99.90;;;;;;4980995;28;20430;-75
2023/12/19 10:01:29;;;;;;;44.42;42.53;;;7.50;99.90;;;;;;4981249;28;20055;-75
2023/12/19 10:03:55;;;;;;;44.67;42.67;;;7.50;99.90;;;;;;4965669;28;20058;-77
2023/12/19 10:06:25;;;;;;;44.38;42.47;;;7.50;99.90;;;;;;4962274;28;20086;-75
2023/12/19 10:08:52;;;;;;;45.85;43.88;;;7.50;99.90;;;;;;4961299;29;20054;-76
2023/12/19 10:11:18;;;;;;;44.78;42.88;;;7.50;99.90;;;;;;4960763;28;20062;-74
2023/12/19 10:13:48;;;;;;;46.50;44.28;;;7.50;99.90;;;;;;4958860;29;20051;-74
2023/12/19 10:16:17;;;;;;;47.25;45.10;;;7.60;99.90;;;;;;4942256;29;20048;-76
2023/12/19 10:18:52;;;;;;;45.80;43.72;;;7.60;99.90;;;;;;4959077;29;20052;-76
2023/12/19 10:21:20;;;;;;;48.25;46.05;;;7.60;99.90;;;;;;4957107;28;20051;-75
2023/12/19 10:23:46;;;;;;;46.72;44.63;;;7.60;99.90;;;;;;4949466;28;20522;-77
2023/12/19 10:26:12;;;;;;;46.85;44.85;;;7.60;99.90;;;;;;4961610;28;20059;-77
2023/12/19 10:28:40;;;;;;;45.30;43.20;;;7.60;99.90;;;;;;4961211;29;20043;-76
2023/12/19 10:31:14;;;;;;;46.50;44.25;;;7.70;99.90;;;;;;4961966;29;20572;-76
2023/12/19 10:33:50;;;;;;;47.58;45.28;;;7.70;99.90;;;;;;4960836;29;20047;-76
2023/12/19 10:36:32;;;;;;;;;;;7.70;99.90;;;;;;4962288;28;20055;-77
2023/12/19 10:39:00;;;;;;;46.83;44.63;;;7.70;99.90;;;;;;4962398;29;19927;-74
2023/12/19 10:41:27;;;;;;;46.58;44.30;;;7.70;99.90;;;;;;4961008;29;20043;-76
2023/12/19 10:43:58;;;;;;;45.40;43.17;;;7.70;99.90;;;;;;4961862;28;20043;-75
2023/12/19 10:46:27;;;;;;;45.72;43.58;;;7.80;99.90;;;;;;4960553;29;20104;-74
2023/12/19 10:49:04;;;;;;;44.92;42.75;;;7.80;99.90;;;;;;4961495;28;20054;-75
2023/12/19 10:51:33;;;;;;;44.88;42.58;;;7.80;99.90;;;;;;4960794;29;20419;-76
2023/12/19 10:54:15;;;;;;;45.10;42.95;;;7.80;99.90;;;;;;4964059;28;20046;-75
2023/12/19 10:56:53;;;;;;;46.63;44.42;;;7.80;99.90;;;;;;4981330;28;20054;-74
2023/12/19 10:59:47;;;;;;;44.58;42.08;;;7.80;99.90;;;;;;4995984;28;20051;-74
2023/12/19 11:02:41;;;;;;;44.88;42.58;;;7.90;99.90;;;;;;4943251;29;20062;-77
2023/12/19 11:05:36;;;;;;;44.47;42.47;;;7.90;99.90;;;;;;4976240;28;20055;-74
2023/12/19 11:08:05;;;;;;;43.08;40.80;;;7.90;99.90;;;;;;4932767;28;20059;-75
2023/12/19 11:10:40;;;;;;;45.55;43.33;;;7.90;99.90;;;;;;4960198;29;20134;-75
2023/12/19 11:13:06;;;;;;;44.33;41.95;;;7.90;99.90;;;;;;4963783;28;20061;-75
2023/12/19 11:15:34;;;;;;;43.45;41.28;;;8.00;99.90;;;;;;4979321;28;20121;-74
2023/12/19 11:18:14;;;;;;;46.80;44.58;;;8.00;99.90;;;;;;4979762;28;20102;-75
2023/12/19 11:20:45;;;;;;;42.38;40.15;;;7.90;99.90;;;;;;4977844;28;20047;-76
2023/12/19 11:23:41;;;;;;;38.38;36.25;;;8.00;99.90;;;;;;4977572;28;20046;-76
2023/12/19 11:26:17;;;;;;;40.53;38.53;;;8.00;99.90;;;;;;4949911;28;20641;-76
2023/12/19 11:28:43;;;;;;;39.95;37.92;;;8.00;99.90;;;;;;4940598;29;20045;-76
2023/12/19 11:31:32;;;;;;;42.22;39.88;;;8.00;99.90;;;;;;5015171;28;20060;-76
2023/12/19 11:34:24;;;;;;;42.00;39.90;;;8.10;99.90;;;;;;4982653;28;20055;-76
2023/12/19 11:37:04;;;;;;;40.97;38.88;;;8.10;99.90;;;;;;4958128;28;20051;-77
2023/12/19 11:39:36;;;;;;;39.70;37.50;;;8.10;99.90;;;;;;4940709;29;20052;-77
2023/12/19 11:42:01;;;;;;;40.25;37.80;;;8.10;99.90;;;;;;4939795;29;20051;-76
2023/12/19 11:44:37;;;;;;;38.58;36.50;;;8.10;99.90;;;;;;4940768;28;20048;-78
2023/12/19 11:47:16;;;;;;;41.53;39.38;;;8.10;99.90;;;;;;4940772;29;20047;-81
2023/12/19 11:49:43;;;;;;;40.22;37.97;;;8.10;99.90;;;;;;4970177;28;20055;-77
2023/12/19 11:52:31;;;;;;;42.10;39.78;;;8.20;99.90;;;;;;4943774;29;20054;-77
2023/12/19 11:54:57;;;;;;;41.05;38.75;;;8.20;99.90;;;;;;4958445;29;20051;-77
2023/12/19 11:57:23;;;;;;;41.05;38.72;;;8.20;99.90;;;;;;4959805;29;20596;-78
2023/12/19 11:59:52;;;;;;;36.83;34.83;;;8.20;99.90;;;;;;4958693;29;20093;-77
2023/12/19 12:02:35;;;;;;;40.50;38.28;;;8.20;99.90;;;;;;4953326;28;20052;-77
2023/12/19 12:05:08;;;;;;;40.47;38.08;;;8.30;99.90;;;;;;4959092;28;20076;-77
2023/12/19 12:07:33;;;;;;;40.28;37.95;;;8.20;99.90;;;;;;4958720;28;20064;-77
2023/12/19 12:10:04;;;;;;;40.10;37.80;;;8.20;99.90;;;;;;4959281;29;20035;-79
2023/12/19 12:12:33;;;;;;;39.58;37.25;;;8.20;99.90;;;;;;4965348;28;20074;-80
2023/12/19 12:15:11;;;;;;;39.53;37.45;;;8.30;99.90;;;;;;4979060;28;20039;-80
2023/12/19 12:17:37;;;;;;;42.92;40.53;;;8.30;99.90;;;;;;4978073;28;20055;-78
2023/12/19 12:20:04;;;;;;;42.88;40.63;;;8.30;99.90;;;;;;4978200;28;20129;-77
2023/12/19 12:22:32;;;;;;;39.22;37.17;;;8.30;99.90;;;;;;4979003;28;20062;-77
2023/12/19 12:24:58;;;;;;;38.13;36.13;;;8.30;99.90;;;;;;4975788;28;20130;-77
2023/12/19 12:27:24;;;;;;;38.95;36.65;;;8.30;99.90;;;;;;5059145;28;20386;-76
2023/12/19 12:29:51;;;;;;;38.35;36.28;;;8.30;99.90;;;;;;5017497;28;20046;-76
2023/12/19 12:32:17;;;;;;;37.80;35.65;;;8.30;99.90;;;;;;4962600;28;20561;-76
2023/12/19 12:34:46;;;;;;;36.92;35.00;;;8.30;99.90;;;;;;4958091;28;20590;-77
2023/12/19 12:37:15;;;;;;;38.90;36.92;;;8.30;99.90;;;;;;4957253;28;20062;-75
2023/12/19 12:39:41;;;;;;;38.50;36.38;;;8.30;99.90;;;;;;4966250;28;20058;-75
2023/12/19 12:42:07;;;;;;;36.08;34.20;;;8.30;99.90;;;;;;4976631;28;20051;-75